Time;durP1;ratioP1;P1;durP2;ratioP2;P2;SDS_P1;SDS_P2;PMS_P1;PMS_P2;Temp;Humidity;BMP_temperature;BMP_pressure;BME280_temperature;BME280_humidity;BME280_pressure;Samples;Min_cycle;Max_cycle;Signal;HPM_P1;HPM_P2
2022/02/24 00:00:44;;;;;;;16.17;7.27;;;1.00;99.90;;;;;;4189469;28;20277;-67
2022/02/24 00:02:46;;;;;;;12.10;6.57;;;1.00;99.90;;;;;;4171755;28;20278;-63
2022/02/24 00:04:47;;;;;;;14.73;7.20;;;1.00;99.90;;;;;;4189737;28;20285;-46
2022/02/24 00:06:48;;;;;;;13.23;6.10;;;1.00;99.90;;;;;;4188346;28;20270;-65
2022/02/24 00:08:50;;;;;;;17.17;6.80;;;1.00;99.90;;;;;;4170588;28;20332;-67
2022/02/24 00:10:52;;;;;;;16.03;6.60;;;1.00;99.90;;;;;;4171826;28;20328;-68
2022/02/24 00:12:54;;;;;;;12.53;5.60;;;1.00;99.90;;;;;;4189586;28;20323;-62
2022/02/24 00:14:56;;;;;;;11.77;5.57;;;1.00;99.90;;;;;;4190700;28;20277;-50
2022/02/24 00:17:02;;;;;;;10.97;4.83;;;1.00;99.90;;;;;;4170274;28;20277;-67
2022/02/24 00:19:03;;;;;;;13.23;5.43;;;1.00;99.90;;;;;;4190173;28;20347;-67
2022/02/24 00:21:04;;;;;;;11.60;5.90;;;1.00;99.90;;;;;;4189185;28;21332;-52
2022/02/24 00:23:06;;;;;;;11.43;4.33;;;1.00;99.90;;;;;;4190602;28;20289;-49
2022/02/24 00:25:08;;;;;;;10.43;4.43;;;1.00;99.90;;;;;;4194775;28;20311;-58
2022/02/24 00:27:09;;;;;;;8.23;4.53;;;1.10;99.90;;;;;;4196315;28;20261;-66
2022/02/24 00:29:10;;;;;;;8.30;4.40;;;1.10;99.90;;;;;;4195049;28;20312;-72
2022/02/24 00:31:11;;;;;;;9.83;4.97;;;1.10;99.90;;;;;;4194803;28;20277;-55
2022/02/24 00:33:12;;;;;;;12.37;4.73;;;1.10;99.90;;;;;;4195917;28;20335;-86
2022/02/24 00:35:13;;;;;;;13.87;4.57;;;1.10;99.90;;;;;;4195336;28;20346;-50
2022/02/24 00:37:15;;;;;;;12.80;4.70;;;1.10;99.90;;;;;;4195610;28;21139;-52
2022/02/24 00:39:18;;;;;;;13.67;5.00;;;1.10;99.90;;;;;;4194802;28;20265;-59
2022/02/24 00:41:19;;;;;;;10.87;4.80;;;1.10;99.90;;;;;;4195688;28;20307;-64
2022/02/24 00:43:20;;;;;;;10.63;4.23;;;1.10;99.90;;;;;;4194665;28;21076;-62
2022/02/24 00:45:22;;;;;;;10.50;4.77;;;1.20;99.90;;;;;;4195849;28;20792;-61
2022/02/24 00:47:23;;;;;;;10.77;4.27;;;1.20;99.90;;;;;;4193839;28;20269;-55
2022/02/24 00:49:24;;;;;;;11.03;4.83;;;1.20;99.90;;;;;;4194860;28;20307;-55
2022/02/24 00:51:25;;;;;;;11.97;4.90;;;1.20;99.90;;;;;;4193461;28;20285;-46
2022/02/24 00:53:26;;;;;;;8.13;4.03;;;1.20;99.90;;;;;;4178456;28;20340;-63
2022/02/24 00:55:28;;;;;;;16.27;4.87;;;1.20;99.90;;;;;;4195697;28;20751;-58
2022/02/24 00:57:29;;;;;;;10.60;4.47;;;1.20;99.90;;;;;;4196051;28;20277;-52
2022/02/24 00:59:30;;;;;;;10.93;4.70;;;1.20;99.90;;;;;;4177125;28;20270;-61
2022/02/24 01:01:31;;;;;;;7.27;3.83;;;1.20;99.90;;;;;;4195461;28;20269;-58
2022/02/24 01:03:32;;;;;;;9.07;4.07;;;1.20;99.90;;;;;;4194971;28;20334;-60
2022/02/24 01:05:34;;;;;;;9.93;4.93;;;1.20;99.90;;;;;;4194677;28;20741;-45
2022/02/24 01:07:35;;;;;;;6.53;4.10;;;1.20;99.90;;;;;;4195303;28;20693;-46
2022/02/24 01:09:36;;;;;;;6.93;4.13;;;1.20;99.90;;;;;;4194599;28;20331;-66
2022/02/24 01:11:38;;;;;;;9.30;4.53;;;1.20;99.90;;;;;;4177900;28;20286;-55
2022/02/24 01:13:39;;;;;;;9.73;4.77;;;1.20;99.90;;;;;;4193993;28;20347;-50
2022/02/24 01:15:42;;;;;;;11.27;5.10;;;1.20;99.90;;;;;;4177743;28;20348;-55
2022/02/24 01:17:44;;;;;;;10.20;4.60;;;1.20;99.90;;;;;;4193466;28;20335;-64
2022/02/24 01:19:45;;;;;;;13.23;4.23;;;1.20;99.90;;;;;;4195138;28;20273;-59
2022/02/24 01:21:46;;;;;;;13.30;4.20;;;1.20;99.90;;;;;;4193636;28;20347;-45
2022/02/24 01:23:47;;;;;;;14.03;4.70;;;1.20;99.90;;;;;;4189609;28;20697;-74
2022/02/24 01:25:48;;;;;;;10.53;5.13;;;1.20;99.90;;;;;;4187766;28;20273;-53
2022/02/24 01:27:49;;;;;;;8.80;4.80;;;1.10;99.90;;;;;;4191740;28;20277;-70
2022/02/24 01:29:51;;;;;;;13.37;5.67;;;1.00;99.90;;;;;;4176856;28;20770;-62
2022/02/24 01:31:52;;;;;;;13.57;5.73;;;1.00;99.90;;;;;;4177101;28;20274;-66
2022/02/24 01:33:53;;;;;;;10.90;5.90;;;1.00;99.90;;;;;;4195563;28;20293;-61
2022/02/24 01:35:54;;;;;;;13.53;6.63;;;0.90;99.90;;;;;;4191803;28;20266;-45
2022/02/24 01:37:55;;;;;;;19.17;8.67;;;0.90;99.90;;;;;;4192210;28;20323;-68
2022/02/24 01:39:58;;;;;;;24.90;9.00;;;0.90;99.90;;;;;;4564134;22;20313;-55
2022/02/24 01:41:59;;;;;;;10.90;5.80;;;0.90;99.90;;;;;;4189662;28;20278;-61
2022/02/24 01:44:08;;;;;;;11.07;5.90;;;0.90;99.90;;;;;;4470027;22;20699;-50
2022/02/24 01:46:10;;;;;;;13.57;5.93;;;0.90;99.90;;;;;;4190257;28;20773;-64
2022/02/24 01:48:11;;;;;;;12.30;5.27;;;0.90;99.90;;;;;;4191844;28;20327;-41
2022/02/24 01:50:13;;;;;;;8.43;5.03;;;0.90;99.90;;;;;;4192224;28;20331;-63
2022/02/24 01:52:14;;;;;;;9.83;5.20;;;0.90;99.90;;;;;;4190406;28;21044;-70
2022/02/24 01:54:16;;;;;;;8.90;4.70;;;0.90;99.90;;;;;;4191786;28;20294;-65
2022/02/24 01:56:17;;;;;;;11.77;5.27;;;0.90;99.90;;;;;;4187114;28;20274;-60
2022/02/24 01:58:19;;;;;;;12.57;4.83;;;0.90;99.90;;;;;;4174403;28;20282;-50
2022/02/24 02:00:21;;;;;;;12.40;4.60;;;0.90;99.90;;;;;;4191623;28;20327;-63
2022/02/24 02:02:23;;;;;;;11.10;5.67;;;1.00;99.90;;;;;;4192140;28;20277;-59
2022/02/24 02:04:24;;;;;;;9.47;4.63;;;1.00;99.90;;;;;;4191243;28;20303;-59
2022/02/24 02:06:26;;;;;;;10.30;4.57;;;1.00;99.90;;;;;;4191979;28;20772;-55
2022/02/24 02:08:27;;;;;;;10.47;4.93;;;1.10;99.90;;;;;;4190804;28;20814;-49
2022/02/24 02:10:29;;;;;;;9.57;4.67;;;1.00;99.90;;;;;;4192622;28;20274;-43
2022/02/24 02:12:30;;;;;;;11.67;4.97;;;1.10;99.90;;;;;;4191409;28;20322;-60
2022/02/24 02:14:31;;;;;;;10.07;5.40;;;1.10;99.90;;;;;;4192256;28;20669;-43
2022/02/24 02:16:33;;;;;;;10.30;4.87;;;1.10;99.90;;;;;;4191393;28;20338;-55
2022/02/24 02:18:35;;;;;;;10.47;6.07;;;1.10;99.90;;;;;;4190545;28;20906;-59
2022/02/24 02:20:42;;;;;;;9.30;5.10;;;1.10;99.90;;;;;;4192123;28;20307;-52
2022/02/24 02:22:43;;;;;;;13.27;5.80;;;1.10;99.90;;;;;;4190386;28;20293;-86
2022/02/24 02:25:02;;;;;;;13.80;6.40;;;1.10;99.90;;;;;;4191150;28;20273;-60
2022/02/24 02:27:03;;;;;;;12.37;6.10;;;1.10;99.90;;;;;;4190453;28;20331;-64
2022/02/24 02:29:08;;;;;;;17.50;6.53;;;1.10;99.90;;;;;;4191626;28;21500;-59
2022/02/24 02:31:09;;;;;;;11.97;6.87;;;1.00;99.90;;;;;;4189902;28;20769;-57
2022/02/24 02:33:11;;;;;;;14.37;7.60;;;0.90;99.90;;;;;;4191425;28;20319;-55
2022/02/24 02:35:13;;;;;;;13.97;7.03;;;0.80;99.90;;;;;;4190165;28;20281;-68
2022/02/24 02:37:14;;;;;;;13.50;6.77;;;0.70;99.90;;;;;;4173594;28;20353;-57
2022/02/24 02:39:16;;;;;;;13.43;6.27;;;0.70;99.90;;;;;;4185785;28;20273;-80
2022/02/24 02:41:17;;;;;;;13.83;6.13;;;0.60;99.90;;;;;;4192033;28;20281;-68
2022/02/24 02:43:18;;;;;;;14.40;5.70;;;0.60;99.90;;;;;;4190843;28;20285;-71
2022/02/24 02:45:20;;;;;;;12.50;6.30;;;0.60;99.90;;;;;;4191674;28;20323;-63
2022/02/24 02:47:21;;;;;;;8.90;5.67;;;0.60;99.90;;;;;;4171762;28;20266;-48
2022/02/24 02:49:22;;;;;;;12.43;5.80;;;0.60;99.90;;;;;;4190551;28;20307;-67
2022/02/24 02:51:23;;;;;;;11.77;5.67;;;0.50;99.90;;;;;;4191236;28;20273;-57
2022/02/24 02:53:24;;;;;;;15.47;6.03;;;0.50;99.90;;;;;;4190841;28;20324;-66
2022/02/24 02:55:25;;;;;;;13.13;5.93;;;0.50;99.90;;;;;;4191629;28;20266;-61
2022/02/24 02:57:26;;;;;;;14.07;5.73;;;0.50;99.90;;;;;;4190564;28;20291;-55
2022/02/24 02:59:28;;;;;;;14.87;6.70;;;0.50;99.90;;;;;;4192062;28;20277;-86
2022/02/24 03:01:29;;;;;;;13.43;6.40;;;0.50;99.90;;;;;;4190452;28;20281;-54
2022/02/24 03:03:30;;;;;;;15.53;6.33;;;0.50;99.90;;;;;;4192098;28;20342;-64
2022/02/24 03:05:33;;;;;;;16.50;6.30;;;0.50;99.90;;;;;;4190259;28;20319;-71
2022/02/24 03:07:34;;;;;;;13.37;6.67;;;0.50;99.90;;;;;;4191244;28;20273;-91
2022/02/24 03:09:36;;;;;;;11.73;5.97;;;0.50;99.90;;;;;;4189654;28;20751;-49
2022/02/24 03:11:38;;;;;;;14.27;7.37;;;0.50;99.90;;;;;;4191549;28;20410;-60
2022/02/24 03:13:39;;;;;;;13.80;5.67;;;0.40;99.90;;;;;;4190067;28;20362;-55
2022/02/24 03:15:41;;;;;;;15.00;6.30;;;0.40;99.90;;;;;;4191772;28;20277;-81
2022/02/24 03:17:46;;;;;;;15.33;6.00;;;0.40;99.90;;;;;;4190307;28;20261;-60
2022/02/24 03:19:47;;;;;;;18.97;7.10;;;0.40;99.90;;;;;;4191651;28;20667;-69
2022/02/24 03:21:48;;;;;;;14.47;6.03;;;0.40;99.90;;;;;;4191044;28;20261;-66
2022/02/24 03:23:50;;;;;;;14.00;6.10;;;0.40;99.90;;;;;;4191741;28;20327;-64
2022/02/24 03:25:51;;;;;;;14.30;6.13;;;0.30;99.90;;;;;;4191427;28;20326;-86
2022/02/24 03:27:52;;;;;;;13.83;5.70;;;0.20;99.90;;;;;;4190560;28;20274;-84
2022/02/24 03:29:53;;;;;;;13.57;6.13;;;0.10;99.90;;;;;;4173702;28;20352;-79
2022/02/24 03:31:55;;;;;;;15.27;6.40;;;0.10;99.90;;;;;;4172684;28;20320;-87
2022/02/24 03:33:57;;;;;;;13.97;6.77;;;0.00;99.90;;;;;;4192605;28;20285;-88
2022/02/24 03:35:58;;;;;;;11.00;6.20;;;0.00;99.90;;;;;;4190609;28;20270;-55
2022/02/24 03:37:59;;;;;;;15.30;6.80;;;-0.10;99.90;;;;;;4191570;28;21041;-48
2022/02/24 03:40:00;;;;;;;14.87;5.80;;;-0.10;99.90;;;;;;4189660;28;20285;-61
2022/02/24 03:42:02;;;;;;;13.90;6.40;;;-0.20;99.90;;;;;;4193543;28;20285;-61
2022/02/24 03:44:04;;;;;;;15.17;6.07;;;-0.20;99.90;;;;;;4189875;28;20620;-47
2022/02/24 03:46:05;;;;;;;16.53;6.53;;;-0.20;99.90;;;;;;4190131;28;21019;-67
2022/02/24 03:48:06;;;;;;;15.33;7.20;;;-0.20;99.90;;;;;;4190445;28;20253;-72
2022/02/24 03:50:08;;;;;;;11.03;6.07;;;-0.20;99.90;;;;;;4190062;28;20339;-76
2022/02/24 03:52:09;;;;;;;15.07;6.33;;;-0.20;99.90;;;;;;4191457;28;20262;-82
2022/02/24 03:54:10;;;;;;;12.73;6.40;;;-0.20;99.90;;;;;;4190325;28;20772;-73
2022/02/24 03:56:11;;;;;;;12.57;6.20;;;-0.20;99.90;;;;;;4172746;28;20274;-64
2022/02/24 03:58:13;;;;;;;19.90;5.90;;;-0.20;99.90;;;;;;4188905;28;20284;-63
2022/02/24 04:00:15;;;;;;;12.57;6.00;;;-0.20;99.90;;;;;;4172080;28;20411;-69
2022/02/24 04:02:16;;;;;;;18.50;6.87;;;-0.20;99.90;;;;;;4169958;28;20274;-62
2022/02/24 04:04:17;;;;;;;13.50;6.60;;;-0.20;99.90;;;;;;4190890;28;20277;-52
2022/02/24 04:06:19;;;;;;;13.63;5.83;;;-0.20;99.90;;;;;;4189686;28;21167;-64
2022/02/24 04:08:20;;;;;;;9.17;5.50;;;-0.20;99.90;;;;;;4190347;28;20285;-50
2022/02/24 04:10:21;;;;;;;17.30;7.37;;;-0.20;99.90;;;;;;4188057;28;20291;-83
2022/02/24 04:12:22;;;;;;;12.73;6.00;;;-0.20;99.90;;;;;;4190273;28;20968;-45
2022/02/24 04:14:24;;;;;;;14.60;5.90;;;-0.20;99.90;;;;;;4189559;28;20370;-74
2022/02/24 04:16:26;;;;;;;13.53;6.10;;;-0.20;99.90;;;;;;4171263;28;20290;-88
2022/02/24 04:18:27;;;;;;;11.20;5.90;;;-0.20;99.90;;;;;;4189854;28;20328;-46
2022/02/24 04:20:28;;;;;;;13.47;5.90;;;-0.20;99.90;;;;;;4189353;28;20277;-56
2022/02/24 04:25:40;;;;;;;18.27;6.57;;;-0.20;99.90;;;;;;4192421;22;20367;-45
2022/02/24 04:27:46;;;;;;;12.20;6.07;;;-0.30;99.90;;;;;;4181001;28;20674;-51
2022/02/24 04:29:49;;;;;;;16.60;6.53;;;-0.30;99.90;;;;;;4178000;28;20269;-63
2022/02/24 04:31:50;;;;;;;16.57;7.47;;;-0.40;99.90;;;;;;4173650;28;20680;-87
2022/02/24 04:33:51;;;;;;;18.60;6.27;;;-0.50;99.90;;;;;;4179303;28;20343;-64
2022/02/24 04:35:53;;;;;;;16.53;6.50;;;-0.50;99.90;;;;;;4178383;28;20759;-58
2022/02/24 04:37:54;;;;;;;15.70;6.27;;;-0.50;99.90;;;;;;4171562;28;20331;-81
2022/02/24 04:39:55;;;;;;;11.50;6.37;;;-0.50;99.90;;;;;;4187068;28;20832;-67
2022/02/24 04:41:56;;;;;;;13.73;5.77;;;-0.50;99.90;;;;;;4189224;28;20293;-74
2022/02/24 04:43:57;;;;;;;16.83;7.27;;;-0.50;99.90;;;;;;4189232;28;20311;-62
2022/02/24 04:46:00;;;;;;;14.70;6.40;;;-0.50;99.90;;;;;;4182892;28;20339;-83
2022/02/24 04:48:01;;;;;;;17.87;6.23;;;-0.40;99.90;;;;;;4180482;28;20270;-60
2022/02/24 04:50:05;;;;;;;14.40;5.00;;;-0.40;99.90;;;;;;4175966;28;20374;-60
2022/02/24 04:52:06;;;;;;;13.57;6.00;;;-0.40;99.90;;;;;;4189398;28;20378;-67
2022/02/24 04:54:08;;;;;;;11.33;5.17;;;-0.30;99.90;;;;;;4428481;22;20301;-61
2022/02/24 04:56:09;;;;;;;15.50;5.67;;;-0.30;99.90;;;;;;4169405;28;20270;-52
2022/02/24 04:58:10;;;;;;;19.43;6.70;;;-0.20;99.90;;;;;;4182151;28;20261;-82
2022/02/24 05:00:12;;;;;;;15.60;7.00;;;-0.20;99.90;;;;;;4188695;28;20327;-77
2022/02/24 05:02:13;;;;;;;17.07;6.67;;;-0.20;99.90;;;;;;4176765;28;20699;-66
2022/02/24 05:04:16;;;;;;;16.27;7.43;;;-0.20;99.90;;;;;;4179682;28;20882;-77
2022/02/24 05:06:17;;;;;;;18.57;7.73;;;-0.20;99.90;;;;;;4195527;28;20261;-85
2022/02/24 05:08:18;;;;;;;19.67;7.60;;;-0.30;99.90;;;;;;4196996;28;20273;-64
2022/02/24 05:10:19;;;;;;;19.93;9.33;;;-0.30;99.90;;;;;;4195521;28;20273;-87
2022/02/24 05:12:21;;;;;;;18.43;7.70;;;-0.40;99.90;;;;;;4194821;28;20270;-92
2022/02/24 05:14:22;;;;;;;19.23;8.57;;;-0.40;99.90;;;;;;4195198;28;20290;-63
2022/02/24 05:16:23;;;;;;;21.43;9.87;;;-0.40;99.90;;;;;;4185341;28;20288;-89
2022/02/24 05:18:24;;;;;;;16.53;8.40;;;-0.50;99.90;;;;;;4178697;28;20316;-89
2022/02/24 05:20:25;;;;;;;24.57;10.73;;;-0.50;99.90;;;;;;4171057;28;20270;-77
2022/02/24 05:22:27;;;;;;;20.70;11.27;;;-0.50;99.90;;;;;;4158550;28;20271;-52
2022/02/24 05:24:28;;;;;;;24.57;10.97;;;-0.60;99.90;;;;;;4190182;28;20295;-50
2022/02/24 05:26:29;;;;;;;29.77;11.13;;;-0.60;99.90;;;;;;4192311;28;20331;-54
2022/02/24 05:28:30;;;;;;;22.47;11.93;;;-0.60;99.90;;;;;;4193385;28;20910;-42
2022/02/24 05:30:32;;;;;;;18.13;9.47;;;-0.70;99.90;;;;;;4190537;28;20273;-65
2022/02/24 05:32:33;;;;;;;27.10;11.70;;;-0.70;99.90;;;;;;4181065;28;20680;-67
2022/02/24 05:34:34;;;;;;;23.03;13.30;;;-0.70;99.90;;;;;;4173510;28;20294;-78
2022/02/24 05:36:38;;;;;;;20.23;10.87;;;-0.70;99.90;;;;;;4187326;28;20282;-47
2022/02/24 05:38:39;;;;;;;16.70;10.30;;;-0.70;99.90;;;;;;4191778;28;20794;-72
2022/02/24 05:40:40;;;;;;;22.63;11.60;;;-0.70;99.90;;;;;;4191798;28;20773;-67
2022/02/24 05:42:43;;;;;;;27.93;13.43;;;-0.70;99.90;;;;;;4193290;28;20322;-68
2022/02/24 05:44:44;;;;;;;27.17;14.63;;;-0.70;99.90;;;;;;4191467;28;20394;-82
2022/02/24 05:46:46;;;;;;;37.00;16.87;;;-0.70;99.90;;;;;;4192474;28;20765;-68
2022/02/24 05:48:47;;;;;;;39.00;15.80;;;-0.60;99.90;;;;;;4184533;28;20669;-57
2022/02/24 05:50:48;;;;;;;35.40;15.90;;;-0.50;99.90;;;;;;4166944;28;20290;-66
2022/02/24 05:52:49;;;;;;;33.20;15.43;;;-0.40;99.90;;;;;;4172726;28;20312;-62
2022/02/24 05:54:52;;;;;;;33.93;16.60;;;-0.30;99.90;;;;;;4178078;28;20824;-44
2022/02/24 05:56:53;;;;;;;35.20;16.77;;;-0.30;99.90;;;;;;4170190;28;20339;-68
2022/02/24 05:58:55;;;;;;;37.73;17.87;;;-0.20;99.90;;;;;;4157543;28;20448;-66
2022/02/24 06:00:56;;;;;;;28.47;15.07;;;0.10;99.90;;;;;;4175943;28;20278;-67
2022/02/24 06:02:57;;;;;;;27.40;12.43;;;0.20;99.90;;;;;;4174327;28;20286;-65
2022/02/24 06:04:58;;;;;;;29.13;12.53;;;0.20;99.90;;;;;;4176142;28;20328;-66
2022/02/24 06:06:59;;;;;;;27.20;13.40;;;0.30;99.90;;;;;;4146068;28;20321;-54
2022/02/24 06:09:01;;;;;;;30.17;13.50;;;0.40;99.90;;;;;;4156047;28;20733;-68
2022/02/24 06:11:02;;;;;;;20.30;11.63;;;0.70;99.90;;;;;;4159233;28;20674;-60
2022/02/24 06:13:03;;;;;;;25.60;12.20;;;1.00;99.90;;;;;;4169765;28;20270;-57
2022/02/24 06:15:07;;;;;;;26.53;11.90;;;1.20;99.90;;;;;;4169530;28;20835;-64
2022/02/24 06:17:09;;;;;;;25.53;11.20;;;1.40;99.90;;;;;;4167285;28;20355;-65
2022/02/24 06:19:10;;;;;;;20.30;9.40;;;1.70;99.90;;;;;;4143873;28;20314;-74
2022/02/24 06:21:11;;;;;;;21.17;9.47;;;2.00;99.90;;;;;;4171853;28;20286;-49
2022/02/24 06:23:13;;;;;;;13.87;8.47;;;2.20;99.90;;;;;;4165314;28;20262;-66
2022/02/24 06:25:14;;;;;;;16.70;9.23;;;2.50;99.90;;;;;;4150744;28;21343;-53
2022/02/24 06:27:15;;;;;;;15.50;8.47;;;2.60;99.90;;;;;;4170234;28;20834;-76
2022/02/24 06:29:16;;;;;;;16.17;8.00;;;2.90;99.90;;;;;;4165892;28;20669;-44
2022/02/24 06:31:18;;;;;;;19.17;9.20;;;3.50;99.90;;;;;;4164302;28;20312;-57
2022/02/24 06:33:19;;;;;;;14.97;8.23;;;4.00;99.90;;;;;;4160372;28;20266;-87
2022/02/24 06:35:20;;;;;;;21.13;10.03;;;4.40;99.90;;;;;;4156582;28;20368;-66
2022/02/24 06:37:22;;;;;;;33.17;13.50;;;4.80;99.90;;;;;;4169532;28;20259;-48
2022/02/24 06:39:23;;;;;;;42.47;17.40;;;5.10;99.90;;;;;;4173124;28;20277;-82
2022/02/24 06:41:25;;;;;;;76.43;27.10;;;5.50;99.90;;;;;;4159805;28;20761;-56
2022/02/24 06:43:26;;;;;;;95.73;33.23;;;6.10;99.90;;;;;;4159280;28;20119;-72
2022/02/24 06:45:28;;;;;;;112.53;37.23;;;6.40;99.90;;;;;;4167463;28;20154;-59
2022/02/24 06:47:29;;;;;;;68.10;24.73;;;6.70;99.90;;;;;;4188069;22;20052;-49
2022/02/24 06:49:30;;;;;;;56.57;22.90;;;6.90;99.90;;;;;;4174703;28;20044;-66
2022/02/24 06:51:31;;;;;;;50.63;20.67;;;7.10;99.90;;;;;;4181100;28;20033;-68
2022/02/24 06:53:33;;;;;;;37.23;15.33;;;7.30;99.90;;;;;;4169773;28;20070;-55
2022/02/24 06:55:34;;;;;;;37.83;15.73;;;7.50;99.90;;;;;;4180006;28;20486;-67
2022/02/24 06:57:47;;;;;;;19.50;9.80;;;7.60;99.90;;;;;;4181033;28;20048;-65
2022/02/24 06:59:48;;;;;;;14.80;8.00;;;7.90;99.90;;;;;;4179029;28;20032;-57
2022/02/24 07:01:49;;;;;;;16.10;8.50;;;8.20;99.90;;;;;;4191620;28;20037;-62
2022/02/24 07:03:50;;;;;;;17.10;8.10;;;8.30;99.90;;;;;;4189867;28;20028;-52
2022/02/24 07:05:51;;;;;;;14.53;7.77;;;8.60;99.90;;;;;;4191396;28;20086;-54
2022/02/24 07:07:52;;;;;;;12.03;6.60;;;8.90;99.90;;;;;;4190344;28;20085;-57
2022/02/24 07:09:53;;;;;;;12.77;5.90;;;9.20;99.90;;;;;;4191139;28;20078;-65
2022/02/24 07:11:56;;;;;;;17.23;7.37;;;8.90;99.90;;;;;;4190115;28;20042;-64
2022/02/24 07:13:57;;;;;;;11.73;6.37;;;8.90;99.90;;;;;;4190986;28;20488;-65
2022/02/24 07:15:58;;;;;;;11.37;6.17;;;8.90;99.90;;;;;;4190131;28;20036;-60
2022/02/24 07:18:00;;;;;;;13.47;6.90;;;9.10;99.90;;;;;;4190167;28;20124;-62
2022/02/24 07:20:02;;;;;;;15.47;7.73;;;9.20;99.90;;;;;;4190127;28;20082;-65
2022/02/24 07:22:03;;;;;;;12.90;7.57;;;9.10;99.90;;;;;;4182832;28;20020;-65
2022/02/24 07:24:04;;;;;;;12.07;7.07;;;9.10;99.90;;;;;;4186489;22;20400;-63
2022/02/24 07:26:07;;;;;;;12.67;7.13;;;8.90;99.90;;;;;;4160296;28;20037;-61
2022/02/24 07:28:08;;;;;;;19.43;8.63;;;8.80;99.90;;;;;;4184000;28;20025;-61
2022/02/24 07:30:11;;;;;;;17.57;8.57;;;8.30;99.90;;;;;;4189417;28;20434;-62
2022/02/24 07:32:12;;;;;;;18.17;9.07;;;8.10;99.90;;;;;;4180623;28;20083;-49
2022/02/24 07:34:13;;;;;;;16.33;8.50;;;7.50;99.90;;;;;;4171876;28;20049;-47
2022/02/24 07:36:15;;;;;;;14.90;7.83;;;7.00;99.90;;;;;;4156387;28;20091;-65
2022/02/24 07:38:16;;;;;;;20.23;8.63;;;7.10;99.90;;;;;;4172249;28;20037;-58
2022/02/24 07:40:17;;;;;;;12.50;6.53;;;6.90;99.90;;;;;;4177387;28;20044;-64
2022/02/24 07:42:18;;;;;;;18.20;8.23;;;6.60;99.90;;;;;;4189987;28;20016;-57
2022/02/24 07:44:19;;;;;;;13.57;7.03;;;6.50;99.90;;;;;;4189693;28;20447;-57
2022/02/24 07:46:20;;;;;;;7.50;4.73;;;6.60;99.90;;;;;;4190059;28;20078;-60
2022/02/24 07:48:21;;;;;;;16.13;6.17;;;6.70;99.90;;;;;;4188107;28;20454;-61
2022/02/24 07:50:23;;;;;;;12.93;6.10;;;6.70;99.90;;;;;;4190443;28;20074;-52
2022/02/24 07:52:24;;;;;;;13.27;7.33;;;6.50;99.90;;;;;;4189255;28;20098;-60
2022/02/24 07:54:25;;;;;;;16.33;8.30;;;6.60;99.90;;;;;;4190045;28;20044;-62
2022/02/24 07:56:26;;;;;;;16.30;8.60;;;6.50;99.90;;;;;;4189176;28;20146;-46
2022/02/24 07:58:27;;;;;;;16.30;8.93;;;6.30;99.90;;;;;;4176577;28;20098;-50
2022/02/24 08:00:28;;;;;;;18.37;8.33;;;6.20;99.90;;;;;;4172445;28;20033;-46
2022/02/24 08:02:29;;;;;;;27.13;8.37;;;6.20;99.90;;;;;;4173414;28;20401;-65
2022/02/24 08:04:30;;;;;;;16.07;8.03;;;6.10;99.90;;;;;;4154283;28;20072;-58
2022/02/24 08:06:32;;;;;;;17.03;7.77;;;6.10;99.90;;;;;;4173477;28;20465;-57
2022/02/24 08:08:33;;;;;;;15.67;6.53;;;6.20;99.90;;;;;;4178554;28;20090;-66
2022/02/24 08:10:34;;;;;;;12.53;6.10;;;6.20;99.90;;;;;;4183967;28;20538;-41
2022/02/24 08:12:44;;;;;;;12.73;6.90;;;6.40;99.90;;;;;;4176619;28;20556;-65
2022/02/24 08:14:45;;;;;;;14.75;7.20;;;6.90;99.90;;;;;;4190053;28;20036;-59
2022/02/24 08:16:47;;;;;;;13.87;7.07;;;7.30;99.90;;;;;;4191212;28;20121;-80
2022/02/24 08:18:49;;;;;;;15.93;7.33;;;7.20;99.90;;;;;;4185264;28;20082;-48
2022/02/24 08:20:50;;;;;;;14.23;7.50;;;7.30;99.90;;;;;;4185512;28;20913;-64
2022/02/24 08:22:53;;;;;;;16.27;7.67;;;7.20;99.90;;;;;;4184282;28;20040;-70
2022/02/24 08:24:54;;;;;;;14.27;7.10;;;6.90;99.90;;;;;;4188035;28;20036;-82
2022/02/24 08:26:55;;;;;;;13.67;7.07;;;6.70;99.90;;;;;;4181237;28;20036;-66
2022/02/24 08:28:57;;;;;;;11.97;6.73;;;6.70;99.90;;;;;;4162931;28;20460;-66
2022/02/24 08:30:58;;;;;;;13.33;6.93;;;6.90;99.90;;;;;;4184071;28;20025;-72
2022/02/24 08:33:00;;;;;;;13.13;6.70;;;7.40;99.90;;;;;;4165859;23;20060;-75
2022/02/24 08:35:02;;;;;;;24.17;7.80;;;8.20;99.90;;;;;;4168229;28;20106;-62
2022/02/24 08:37:04;;;;;;;15.67;7.23;;;7.90;99.90;;;;;;4156693;28;20485;-60
2022/02/24 08:39:06;;;;;;;17.87;8.67;;;7.70;99.90;;;;;;4173535;28;20017;-69
2022/02/24 08:41:07;;;;;;;19.00;8.63;;;7.40;99.90;;;;;;4171264;28;20377;-66
2022/02/24 08:43:08;;;;;;;21.07;7.37;;;8.00;99.90;;;;;;4175527;28;20106;-49
2022/02/24 08:45:11;;;;;;;16.13;6.60;;;8.40;99.90;;;;;;4176177;28;20842;-73
2022/02/24 08:47:13;;;;;;;19.77;6.70;;;8.70;99.90;;;;;;4159588;28;20535;-59
2022/02/24 08:49:14;;;;;;;19.33;7.73;;;9.30;99.90;;;;;;4176172;28;20481;-62
2022/02/24 08:51:15;;;;;;;17.53;6.63;;;9.40;99.90;;;;;;4168561;28;20102;-58
2022/02/24 08:53:16;;;;;;;16.90;9.03;;;9.70;99.90;;;;;;4163088;28;20038;-59
2022/02/24 08:55:18;;;;;;;18.47;10.43;;;9.90;99.90;;;;;;4174349;28;20037;-68
2022/02/24 08:57:19;;;;;;;12.67;7.37;;;10.10;99.90;;;;;;4179675;28;20070;-70
2022/02/24 08:59:20;;;;;;;18.20;8.53;;;9.90;99.90;;;;;;4179934;28;20128;-73
2022/02/24 09:01:21;;;;;;;17.73;7.37;;;9.80;99.90;;;;;;4178984;28;20079;-66
2022/02/24 09:03:22;;;;;;;17.03;6.53;;;9.70;99.90;;;;;;4176748;28;20056;-63
2022/02/24 09:05:24;;;;;;;12.33;5.37;;;9.70;99.90;;;;;;4174227;28;20048;-61
2022/02/24 09:07:25;;;;;;;14.83;5.50;;;9.90;99.90;;;;;;4171690;28;20096;-66
2022/02/24 09:09:26;;;;;;;10.23;5.17;;;9.90;99.90;;;;;;4177754;28;20033;-61
2022/02/24 09:11:27;;;;;;;13.40;6.63;;;9.90;99.90;;;;;;4148359;28;20046;-77
2022/02/24 09:13:28;;;;;;;15.03;7.40;;;9.80;99.90;;;;;;4159195;28;20029;-46
2022/02/24 09:15:35;;;;;;;15.97;7.20;;;9.70;99.70;;;;;;4162643;28;20038;-51
2022/02/24 09:17:36;;;;;;;18.40;5.80;;;9.60;99.80;;;;;;4162187;28;20511;-61
2022/02/24 09:19:39;;;;;;;36.70;9.53;;;9.60;99.80;;;;;;4163227;28;20839;-49
2022/02/24 09:21:41;;;;;;;25.33;9.90;;;9.50;99.60;;;;;;4162568;28;20091;-57
2022/02/24 09:23:42;;;;;;;24.30;10.97;;;9.30;99.50;;;;;;4161383;28;20025;-51
2022/02/24 09:25:43;;;;;;;15.43;6.30;;;9.40;99.90;;;;;;4168467;28;20032;-75
2022/02/24 09:27:44;;;;;;;14.73;6.30;;;9.10;99.30;;;;;;4178630;28;20087;-58
2022/02/24 09:29:46;;;;;;;16.00;7.07;;;9.00;99.90;;;;;;4179080;28;20044;-60
2022/02/24 09:31:47;;;;;;;19.27;8.47;;;9.00;99.90;;;;;;4174021;28;20087;-63
2022/02/24 09:33:48;;;;;;;17.07;6.10;;;8.80;99.90;;;;;;4185129;28;20071;-54
2022/02/24 09:35:49;;;;;;;9.80;3.13;;;8.60;99.90;;;;;;4182128;28;20107;-70
2022/02/24 09:37:50;;;;;;;15.37;4.13;;;8.20;98.90;;;;;;4181125;28;20119;-66
2022/02/24 09:39:51;;;;;;;15.87;5.27;;;7.90;99.30;;;;;;4174379;28;20063;-66
2022/02/24 09:41:54;;;;;;;9.83;4.87;;;7.40;99.60;;;;;;4194250;28;20094;-56
2022/02/24 09:43:55;;;;;;;14.43;3.77;;;7.00;99.90;;;;;;4186469;28;20421;-71
2022/02/24 09:46:00;;;;;;;10.40;4.47;;;7.00;99.90;;;;;;4192805;28;20033;-65
2022/02/24 09:48:05;;;;;;;14.60;4.07;;;7.20;99.90;;;;;;4174269;28;20029;-71
2022/02/24 09:50:07;;;;;;;11.40;3.73;;;7.60;99.90;;;;;;4182987;28;20059;-62
2022/02/24 09:52:09;;;;;;;7.97;3.33;;;7.90;99.90;;;;;;4191810;28;20813;-58
2022/02/24 09:54:10;;;;;;;9.60;3.83;;;8.30;99.90;;;;;;4192041;28;20086;-50
2022/02/24 09:56:20;;;;;;;9.87;3.70;;;8.60;99.60;;;;;;4192604;28;20040;-50
2022/02/24 09:58:21;;;;;;;21.20;8.23;;;8.80;99.00;;;;;;4192990;28;20040;-46
2022/02/24 10:00:23;;;;;;;20.40;6.50;;;8.90;98.80;;;;;;4180443;28;20041;-69
2022/02/24 10:02:29;;;;;;;11.23;3.80;;;9.10;98.80;;;;;;4175107;28;20493;-51
2022/02/24 10:04:30;;;;;;;9.13;3.30;;;9.20;98.60;;;;;;4176219;28;20025;-58
2022/02/24 10:06:39;;;;;;;22.60;9.90;;;9.50;98.30;;;;;;4176156;28;20033;-65
2022/02/24 10:08:46;;;;;;;12.57;5.83;;;9.60;98.00;;;;;;4176577;28;20499;-72
2022/02/24 10:10:47;;;;;;;13.63;4.27;;;9.60;97.90;;;;;;4175196;28;20074;-47
2022/02/24 10:13:08;;;;;;;9.57;4.10;;;9.50;98.20;;;;;;4176786;28;20083;-63
2022/02/24 10:15:13;;;;;;;11.63;4.27;;;9.60;97.60;;;;;;4164188;28;20495;-55
2022/02/24 10:17:17;;;;;;;12.57;3.87;;;9.60;97.80;;;;;;4175236;28;20033;-59
2022/02/24 10:19:27;;;;;;;15.93;3.37;;;9.40;97.10;;;;;;4180930;28;20984;-46
2022/02/24 10:21:28;;;;;;;10.50;3.17;;;9.00;97.10;;;;;;4192586;28;20062;-61
2022/02/24 10:23:39;;;;;;;11.77;4.27;;;8.30;97.60;;;;;;4191004;28;20056;-74
2022/02/24 10:25:42;;;;;;;15.43;4.37;;;7.70;98.50;;;;;;4192178;28;20032;-71
2022/02/24 10:27:44;;;;;;;13.50;3.80;;;7.20;99.90;;;;;;4191172;28;20567;-65
2022/02/24 10:30:05;;;;;;;9.47;2.97;;;6.70;99.90;;;;;;4184623;28;20945;-64
2022/02/24 10:32:06;;;;;;;;;;;6.40;99.90;;;;;;4173569;28;20090;-62
2022/02/24 10:34:14;;;;;;;9.30;3.87;;;6.30;99.90;;;;;;4173910;28;19963;-61
2022/02/24 10:36:20;;;;;;;14.87;5.00;;;6.00;99.90;;;;;;4168028;28;20063;-66